sensor_id;sensor_type;location;lat;lon;timestamp;temperature;humidity
26623;DHT22;14254;50.968;5.366;2022-10-16T00:00:34;14.80;99.90
26623;DHT22;14254;50.968;5.366;2022-10-16T00:03:00;14.70;99.90
26623;DHT22;14254;50.968;5.366;2022-10-16T00:05:26;14.70;99.90
26623;DHT22;14254;50.968;5.366;2022-10-16T00:07:51;14.70;99.90
26623;DHT22;14254;50.968;5.366;2022-10-16T00:10:17;14.70;99.90
26623;DHT22;14254;50.968;5.366;2022-10-16T00:12:42;14.70;99.90
26623;DHT22;14254;50.968;5.366;2022-10-16T00:15:09;14.70;99.90
26623;DHT22;14254;50.968;5.366;2022-10-16T00:17:34;14.60;99.90
26623;DHT22;14254;50.968;5.366;2022-10-16T00:20:00;14.50;99.90
26623;DHT22;14254;50.968;5.366;2022-10-16T00:22:26;14.50;99.90
26623;DHT22;14254;50.968;5.366;2022-10-16T00:24:51;14.50;99.90
26623;DHT22;14254;50.968;5.366;2022-10-16T00:27:17;14.50;99.90
26623;DHT22;14254;50.968;5.366;2022-10-16T00:29:43;14.60;99.90
26623;DHT22;14254;50.968;5.366;2022-10-16T00:32:08;14.60;99.90
26623;DHT22;14254;50.968;5.366;2022-10-16T00:34:34;14.50;99.90
26623;DHT22;14254;50.968;5.366;2022-10-16T00:37:00;14.50;99.90
26623;DHT22;14254;50.968;5.366;2022-10-16T00:39:26;14.60;99.90
26623;DHT22;14254;50.968;5.366;2022-10-16T00:41:51;14.60;99.90
26623;DHT22;14254;50.968;5.366;2022-10-16T00:47:34;14.50;99.90
26623;DHT22;14254;50.968;5.366;2022-10-16T00:50:16;14.50;99.90
26623;DHT22;14254;50.968;5.366;2022-10-16T00:52:45;14.50;99.90
26623;DHT22;14254;50.968;5.366;2022-10-16T00:55:11;14.50;99.90
26623;DHT22;14254;50.968;5.366;2022-10-16T00:57:37;14.40;99.90
26623;DHT22;14254;50.968;5.366;2022-10-16T01:00:07;14.40;99.90
26623;DHT22;14254;50.968;5.366;2022-10-16T01:02:33;14.50;99.90
26623;DHT22;14254;50.968;5.366;2022-10-16T01:04:58;14.60;99.90
26623;DHT22;14254;50.968;5.366;2022-10-16T01:10:25;14.50;99.90
26623;DHT22;14254;50.968;5.366;2022-10-16T01:15:45;14.40;99.90
26623;DHT22;14254;50.968;5.366;2022-10-16T01:18:53;14.30;99.90
26623;DHT22;14254;50.968;5.366;2022-10-16T01:21:41;14.30;99.90
26623;DHT22;14254;50.968;5.366;2022-10-16T01:24:22;14.20;99.90
26623;DHT22;14254;50.968;5.366;2022-10-16T01:32:00;14.20;99.90
26623;DHT22;14254;50.968;5.366;2022-10-16T01:34:37;14.10;99.90
26623;DHT22;14254;50.968;5.366;2022-10-16T01:37:09;14.10;99.90
26623;DHT22;14254;50.968;5.366;2022-10-16T01:39:39;14.10;99.90
26623;DHT22;14254;50.968;5.366;2022-10-16T01:42:11;14.20;99.90
26623;DHT22;14254;50.968;5.366;2022-10-16T01:44:38;14.20;99.90
26623;DHT22;14254;50.968;5.366;2022-10-16T01:47:05;14.10;99.90
26623;DHT22;14254;50.968;5.366;2022-10-16T01:49:35;14.10;99.90
26623;DHT22;14254;50.968;5.366;2022-10-16T01:52:06;14.20;99.90
26623;DHT22;14254;50.968;5.366;2022-10-16T01:54:35;14.20;99.90
26623;DHT22;14254;50.968;5.366;2022-10-16T01:57:03;14.20;99.90
26623;DHT22;14254;50.968;5.366;2022-10-16T01:59:32;14.10;99.90
26623;DHT22;14254;50.968;5.366;2022-10-16T02:02:05;14.10;99.90
26623;DHT22;14254;50.968;5.366;2022-10-16T02:04:51;14.10;99.90
26623;DHT22;14254;50.968;5.366;2022-10-16T02:07:19;14.00;99.90
26623;DHT22;14254;50.968;5.366;2022-10-16T02:09:44;14.10;99.90
26623;DHT22;14254;50.968;5.366;2022-10-16T02:12:28;14.10;99.90
26623;DHT22;14254;50.968;5.366;2022-10-16T02:14:56;14.10;99.90
26623;DHT22;14254;50.968;5.366;2022-10-16T02:17:22;14.10;99.90
26623;DHT22;14254;50.968;5.366;2022-10-16T02:19:51;14.10;99.90
26623;DHT22;14254;50.968;5.366;2022-10-16T02:22:42;14.10;99.90
26623;DHT22;14254;50.968;5.366;2022-10-16T02:30:38;14.20;99.90
26623;DHT22;14254;50.968;5.366;2022-10-16T02:33:09;14.10;99.90
26623;DHT22;14254;50.968;5.366;2022-10-16T02:35:35;14.10;99.90
26623;DHT22;14254;50.968;5.366;2022-10-16T02:38:03;14.20;99.90
26623;DHT22;14254;50.968;5.366;2022-10-16T02:40:29;14.20;99.90
26623;DHT22;14254;50.968;5.366;2022-10-16T02:42:55;14.30;99.90
26623;DHT22;14254;50.968;5.366;2022-10-16T02:45:21;14.10;99.90
26623;DHT22;14254;50.968;5.366;2022-10-16T02:47:48;14.00;99.90
26623;DHT22;14254;50.968;5.366;2022-10-16T02:50:14;14.00;99.90
26623;DHT22;14254;50.968;5.366;2022-10-16T02:52:39;14.10;99.90
26623;DHT22;14254;50.968;5.366;2022-10-16T02:55:05;14.00;99.90
26623;DHT22;14254;50.968;5.366;2022-10-16T02:57:31;14.10;99.90
26623;DHT22;14254;50.968;5.366;2022-10-16T02:59:57;14.00;99.90
26623;DHT22;14254;50.968;5.366;2022-10-16T03:02:23;14.10;99.90
26623;DHT22;14254;50.968;5.366;2022-10-16T03:04:49;14.10;99.90
26623;DHT22;14254;50.968;5.366;2022-10-16T03:07:15;14.20;99.90
26623;DHT22;14254;50.968;5.366;2022-10-16T03:09:41;14.20;99.90
26623;DHT22;14254;50.968;5.366;2022-10-16T03:12:06;14.10;99.90
26623;DHT22;14254;50.968;5.366;2022-10-16T03:14:32;14.20;99.90
26623;DHT22;14254;50.968;5.366;2022-10-16T03:16:58;14.20;99.90
26623;DHT22;14254;50.968;5.366;2022-10-16T03:19:24;14.20;99.90
26623;DHT22;14254;50.968;5.366;2022-10-16T03:21:49;14.00;99.90
26623;DHT22;14254;50.968;5.366;2022-10-16T03:24:15;14.00;99.90
26623;DHT22;14254;50.968;5.366;2022-10-16T03:26:41;14.00;99.90
26623;DHT22;14254;50.968;5.366;2022-10-16T03:29:07;14.00;99.90
26623;DHT22;14254;50.968;5.366;2022-10-16T03:31:33;14.10;99.90
26623;DHT22;14254;50.968;5.366;2022-10-16T03:33:58;14.10;99.90
26623;DHT22;14254;50.968;5.366;2022-10-16T03:36:24;14.10;99.90
26623;DHT22;14254;50.968;5.366;2022-10-16T03:38:50;14.10;99.90
26623;DHT22;14254;50.968;5.366;2022-10-16T03:41:15;14.10;99.90
26623;DHT22;14254;50.968;5.366;2022-10-16T03:43:42;14.20;99.90
26623;DHT22;14254;50.968;5.366;2022-10-16T03:46:07;14.20;99.90
26623;DHT22;14254;50.968;5.366;2022-10-16T03:48:33;14.20;99.90
26623;DHT22;14254;50.968;5.366;2022-10-16T03:50:59;14.20;99.90
26623;DHT22;14254;50.968;5.366;2022-10-16T03:53:24;14.30;99.90
26623;DHT22;14254;50.968;5.366;2022-10-16T03:55:50;14.20;99.90
26623;DHT22;14254;50.968;5.366;2022-10-16T03:58:16;14.30;99.90
26623;DHT22;14254;50.968;5.366;2022-10-16T04:00:43;14.20;99.90
26623;DHT22;14254;50.968;5.366;2022-10-16T04:03:09;14.20;99.90
26623;DHT22;14254;50.968;5.366;2022-10-16T04:05:35;14.10;99.90
26623;DHT22;14254;50.968;5.366;2022-10-16T04:08:01;14.10;99.90
26623;DHT22;14254;50.968;5.366;2022-10-16T04:10:27;14.10;99.90
26623;DHT22;14254;50.968;5.366;2022-10-16T04:12:52;14.10;99.90
26623;DHT22;14254;50.968;5.366;2022-10-16T04:15:24;14.00;99.90
26623;DHT22;14254;50.968;5.366;2022-10-16T04:17:50;14.00;99.90
26623;DHT22;14254;50.968;5.366;2022-10-16T04:20:16;13.90;99.90
26623;DHT22;14254;50.968;5.366;2022-10-16T04:22:41;13.90;99.90
26623;DHT22;14254;50.968;5.366;2022-10-16T04:25:08;14.00;99.90
26623;DHT22;14254;50.968;5.366;2022-10-16T04:27:33;14.00;99.90
26623;DHT22;14254;50.968;5.366;2022-10-16T04:29:59;14.00;99.90
26623;DHT22;14254;50.968;5.366;2022-10-16T04:32:26;14.00;99.90
26623;DHT22;14254;50.968;5.366;2022-10-16T04:34:52;14.00;99.90
26623;DHT22;14254;50.968;5.366;2022-10-16T04:37:18;14.00;99.90
26623;DHT22;14254;50.968;5.366;2022-10-16T04:39:43;14.10;99.90
26623;DHT22;14254;50.968;5.366;2022-10-16T04:42:10;14.10;99.90
26623;DHT22;14254;50.968;5.366;2022-10-16T04:44:36;14.20;99.90
26623;DHT22;14254;50.968;5.366;2022-10-16T04:47:01;14.10;99.90
26623;DHT22;14254;50.968;5.366;2022-10-16T04:49:27;14.00;99.90
26623;DHT22;14254;50.968;5.366;2022-10-16T04:51:53;14.00;99.90
26623;DHT22;14254;50.968;5.366;2022-10-16T04:54:19;14.00;99.90
26623;DHT22;14254;50.968;5.366;2022-10-16T04:56:44;14.00;99.90
26623;DHT22;14254;50.968;5.366;2022-10-16T04:59:14;14.00;99.90
26623;DHT22;14254;50.968;5.366;2022-10-16T05:01:40;14.00;99.90
26623;DHT22;14254;50.968;5.366;2022-10-16T05:04:06;14.00;99.90
26623;DHT22;14254;50.968;5.366;2022-10-16T05:06:31;14.00;99.90
26623;DHT22;14254;50.968;5.366;2022-10-16T05:08:57;14.10;99.90
26623;DHT22;14254;50.968;5.366;2022-10-16T05:11:23;14.10;99.90
26623;DHT22;14254;50.968;5.366;2022-10-16T05:13:49;14.10;99.90
26623;DHT22;14254;50.968;5.366;2022-10-16T05:16:14;14.10;99.90
26623;DHT22;14254;50.968;5.366;2022-10-16T05:18:40;14.10;99.90
26623;DHT22;14254;50.968;5.366;2022-10-16T05:21:06;14.10;99.90
26623;DHT22;14254;50.968;5.366;2022-10-16T05:23:32;13.90;99.90
26623;DHT22;14254;50.968;5.366;2022-10-16T05:25:58;14.00;99.90
26623;DHT22;14254;50.968;5.366;2022-10-16T05:28:26;14.00;99.90
26623;DHT22;14254;50.968;5.366;2022-10-16T05:30:52;14.00;99.90
26623;DHT22;14254;50.968;5.366;2022-10-16T05:33:20;14.00;99.90
26623;DHT22;14254;50.968;5.366;2022-10-16T05:35:46;14.00;99.90
26623;DHT22;14254;50.968;5.366;2022-10-16T05:38:12;14.00;99.90
26623;DHT22;14254;50.968;5.366;2022-10-16T05:40:38;14.00;99.90
26623;DHT22;14254;50.968;5.366;2022-10-16T05:43:03;14.00;99.90
26623;DHT22;14254;50.968;5.366;2022-10-16T05:45:29;13.90;99.90
26623;DHT22;14254;50.968;5.366;2022-10-16T05:47:55;14.00;99.90
26623;DHT22;14254;50.968;5.366;2022-10-16T05:50:20;14.10;99.90
26623;DHT22;14254;50.968;5.366;2022-10-16T05:52:46;14.00;99.90
26623;DHT22;14254;50.968;5.366;2022-10-16T05:55:12;14.10;99.90
26623;DHT22;14254;50.968;5.366;2022-10-16T05:57:37;14.10;99.90
26623;DHT22;14254;50.968;5.366;2022-10-16T06:00:04;14.10;99.90
26623;DHT22;14254;50.968;5.366;2022-10-16T06:02:30;14.00;99.90
26623;DHT22;14254;50.968;5.366;2022-10-16T06:04:56;13.90;99.90
26623;DHT22;14254;50.968;5.366;2022-10-16T06:07:22;13.90;99.90
26623;DHT22;14254;50.968;5.366;2022-10-16T06:09:49;13.90;99.90
26623;DHT22;14254;50.968;5.366;2022-10-16T06:12:15;13.80;99.90
26623;DHT22;14254;50.968;5.366;2022-10-16T06:14:41;13.70;99.90
26623;DHT22;14254;50.968;5.366;2022-10-16T06:17:06;13.70;99.90
26623;DHT22;14254;50.968;5.366;2022-10-16T06:19:32;13.80;99.90
26623;DHT22;14254;50.968;5.366;2022-10-16T06:21:58;13.80;99.90
26623;DHT22;14254;50.968;5.366;2022-10-16T06:24:24;13.70;99.90
26623;DHT22;14254;50.968;5.366;2022-10-16T06:26:50;13.70;99.90
26623;DHT22;14254;50.968;5.366;2022-10-16T06:29:16;13.70;99.90
26623;DHT22;14254;50.968;5.366;2022-10-16T06:31:41;13.70;99.90
26623;DHT22;14254;50.968;5.366;2022-10-16T06:34:10;13.80;99.90
26623;DHT22;14254;50.968;5.366;2022-10-16T06:36:37;13.80;99.90
26623;DHT22;14254;50.968;5.366;2022-10-16T06:39:03;13.70;99.90
26623;DHT22;14254;50.968;5.366;2022-10-16T06:41:30;13.70;99.90
26623;DHT22;14254;50.968;5.366;2022-10-16T06:43:55;13.70;99.90
26623;DHT22;14254;50.968;5.366;2022-10-16T06:46:23;13.70;99.90
26623;DHT22;14254;50.968;5.366;2022-10-16T06:48:49;13.60;99.90
26623;DHT22;14254;50.968;5.366;2022-10-16T06:51:20;13.60;99.90
26623;DHT22;14254;50.968;5.366;2022-10-16T06:53:48;13.60;99.90
26623;DHT22;14254;50.968;5.366;2022-10-16T06:56:24;13.60;99.90
26623;DHT22;14254;50.968;5.366;2022-10-16T06:58:51;13.60;99.90
26623;DHT22;14254;50.968;5.366;2022-10-16T07:01:19;13.70;99.90
26623;DHT22;14254;50.968;5.366;2022-10-16T07:03:46;13.70;99.90
26623;DHT22;14254;50.968;5.366;2022-10-16T07:06:14;13.60;99.90
26623;DHT22;14254;50.968;5.366;2022-10-16T07:08:42;13.70;99.90
26623;DHT22;14254;50.968;5.366;2022-10-16T07:11:09;13.70;99.90
26623;DHT22;14254;50.968;5.366;2022-10-16T07:13:37;13.70;99.90
26623;DHT22;14254;50.968;5.366;2022-10-16T07:16:08;13.90;99.90
26623;DHT22;14254;50.968;5.366;2022-10-16T07:18:35;14.00;99.90
26623;DHT22;14254;50.968;5.366;2022-10-16T07:21:10;13.90;99.90
26623;DHT22;14254;50.968;5.366;2022-10-16T07:23:37;14.00;99.90
26623;DHT22;14254;50.968;5.366;2022-10-16T07:26:04;14.10;99.90
26623;DHT22;14254;50.968;5.366;2022-10-16T07:28:30;14.20;99.90
26623;DHT22;14254;50.968;5.366;2022-10-16T07:31:01;14.40;99.90
26623;DHT22;14254;50.968;5.366;2022-10-16T07:33:27;14.50;99.90
26623;DHT22;14254;50.968;5.366;2022-10-16T07:35:54;14.60;99.90
26623;DHT22;14254;50.968;5.366;2022-10-16T07:38:21;14.80;99.90
26623;DHT22;14254;50.968;5.366;2022-10-16T07:40:46;14.80;99.90
26623;DHT22;14254;50.968;5.366;2022-10-16T07:43:13;14.90;99.90
26623;DHT22;14254;50.968;5.366;2022-10-16T07:45:49;15.00;99.90
26623;DHT22;14254;50.968;5.366;2022-10-16T07:48:16;15.20;99.90
26623;DHT22;14254;50.968;5.366;2022-10-16T07:50:42;15.40;99.90
26623;DHT22;14254;50.968;5.366;2022-10-16T07:53:08;15.50;99.90
26623;DHT22;14254;50.968;5.366;2022-10-16T07:55:34;15.50;99.90
26623;DHT22;14254;50.968;5.366;2022-10-16T07:58:00;15.60;99.90
26623;DHT22;14254;50.968;5.366;2022-10-16T08:00:25;15.60;99.90
26623;DHT22;14254;50.968;5.366;2022-10-16T08:02:51;15.70;99.90
26623;DHT22;14254;50.968;5.366;2022-10-16T08:05:16;15.70;99.90
26623;DHT22;14254;50.968;5.366;2022-10-16T08:07:42;15.90;99.90
26623;DHT22;14254;50.968;5.366;2022-10-16T08:10:16;16.00;99.90
26623;DHT22;14254;50.968;5.366;2022-10-16T08:12:42;16.10;99.90
26623;DHT22;14254;50.968;5.366;2022-10-16T08:15:08;16.30;99.90
26623;DHT22;14254;50.968;5.366;2022-10-16T08:17:34;16.40;99.90
26623;DHT22;14254;50.968;5.366;2022-10-16T08:20:00;16.30;99.90
26623;DHT22;14254;50.968;5.366;2022-10-16T08:22:26;16.30;99.90
26623;DHT22;14254;50.968;5.366;2022-10-16T08:24:51;16.30;99.90
26623;DHT22;14254;50.968;5.366;2022-10-16T08:27:17;16.40;99.90
26623;DHT22;14254;50.968;5.366;2022-10-16T08:29:43;16.50;99.90
26623;DHT22;14254;50.968;5.366;2022-10-16T08:32:08;16.60;99.90
26623;DHT22;14254;50.968;5.366;2022-10-16T08:34:34;16.70;99.90
26623;DHT22;14254;50.968;5.366;2022-10-16T08:36:59;16.70;99.90
26623;DHT22;14254;50.968;5.366;2022-10-16T08:39:25;16.90;99.90
26623;DHT22;14254;50.968;5.366;2022-10-16T08:42:17;16.90;99.90
26623;DHT22;14254;50.968;5.366;2022-10-16T08:50:26;17.00;99.90
26623;DHT22;14254;50.968;5.366;2022-10-16T08:52:53;17.10;99.90
26623;DHT22;14254;50.968;5.366;2022-10-16T08:58:18;17.20;99.90
26623;DHT22;14254;50.968;5.366;2022-10-16T09:00:51;17.20;99.90
26623;DHT22;14254;50.968;5.366;2022-10-16T09:04:00;17.20;99.90
26623;DHT22;14254;50.968;5.366;2022-10-16T09:17:00;17.70;99.90
26623;DHT22;14254;50.968;5.366;2022-10-16T09:22:04;17.70;99.90
26623;DHT22;14254;50.968;5.366;2022-10-16T09:24:35;17.80;99.90
26623;DHT22;14254;50.968;5.366;2022-10-16T09:27:00;17.80;99.90
26623;DHT22;14254;50.968;5.366;2022-10-16T09:29:26;17.80;99.90
26623;DHT22;14254;50.968;5.366;2022-10-16T09:31:53;18.00;99.90
26623;DHT22;14254;50.968;5.366;2022-10-16T09:34:33;18.20;99.90
26623;DHT22;14254;50.968;5.366;2022-10-16T09:37:03;18.20;99.90
26623;DHT22;14254;50.968;5.366;2022-10-16T09:39:29;18.30;99.90
26623;DHT22;14254;50.968;5.366;2022-10-16T09:41:56;18.40;99.90
26623;DHT22;14254;50.968;5.366;2022-10-16T09:44:30;18.30;99.90
26623;DHT22;14254;50.968;5.366;2022-10-16T09:47:04;18.40;99.90
26623;DHT22;14254;50.968;5.366;2022-10-16T09:49:30;18.30;99.90
26623;DHT22;14254;50.968;5.366;2022-10-16T09:52:12;18.30;99.90
26623;DHT22;14254;50.968;5.366;2022-10-16T09:54:52;18.20;99.90
26623;DHT22;14254;50.968;5.366;2022-10-16T09:57:19;18.00;99.90
26623;DHT22;14254;50.968;5.366;2022-10-16T09:59:55;18.10;99.90
26623;DHT22;14254;50.968;5.366;2022-10-16T10:02:38;18.10;99.90
26623;DHT22;14254;50.968;5.366;2022-10-16T10:05:05;18.50;99.90
26623;DHT22;14254;50.968;5.366;2022-10-16T10:07:43;18.70;99.90
26623;DHT22;14254;50.968;5.366;2022-10-16T10:10:21;18.90;99.90
26623;DHT22;14254;50.968;5.366;2022-10-16T10:12:47;18.90;99.90
26623;DHT22;14254;50.968;5.366;2022-10-16T10:15:13;18.80;99.90
26623;DHT22;14254;50.968;5.366;2022-10-16T10:22:47;18.80;99.90
26623;DHT22;14254;50.968;5.366;2022-10-16T10:38:54;19.80;99.90
26623;DHT22;14254;50.968;5.366;2022-10-16T10:44:19;19.80;99.90
26623;DHT22;14254;50.968;5.366;2022-10-16T10:46:57;19.80;99.90
26623;DHT22;14254;50.968;5.366;2022-10-16T10:50:22;19.50;99.90
26623;DHT22;14254;50.968;5.366;2022-10-16T10:55:24;20.00;99.90
26623;DHT22;14254;50.968;5.366;2022-10-16T11:01:01;19.80;99.90
26623;DHT22;14254;50.968;5.366;2022-10-16T11:06:16;19.40;99.90
26623;DHT22;14254;50.968;5.366;2022-10-16T11:11:22;20.40;99.90
26623;DHT22;14254;50.968;5.366;2022-10-16T11:14:20;21.20;99.90
26623;DHT22;14254;50.968;5.366;2022-10-16T11:17:04;22.80;99.90
26623;DHT22;14254;50.968;5.366;2022-10-16T11:19:59;24.50;99.90
26623;DHT22;14254;50.968;5.366;2022-10-16T11:22:44;26.00;99.90
26623;DHT22;14254;50.968;5.366;2022-10-16T11:25:20;25.80;99.90
26623;DHT22;14254;50.968;5.366;2022-10-16T11:37:17;25.40;99.90
26623;DHT22;14254;50.968;5.366;2022-10-16T11:39:44;25.40;99.90
26623;DHT22;14254;50.968;5.366;2022-10-16T11:42:30;25.20;99.90
26623;DHT22;14254;50.968;5.366;2022-10-16T11:45:33;24.80;99.90
26623;DHT22;14254;50.968;5.366;2022-10-16T11:50:39;23.30;99.90
26623;DHT22;14254;50.968;5.366;2022-10-16T11:53:37;23.10;99.90
26623;DHT22;14254;50.968;5.366;2022-10-16T11:56:05;23.60;99.90
26623;DHT22;14254;50.968;5.366;2022-10-16T11:59:01;25.10;99.90
26623;DHT22;14254;50.968;5.366;2022-10-16T12:07:24;26.10;98.80
26623;DHT22;14254;50.968;5.366;2022-10-16T12:09:53;24.40;99.90
26623;DHT22;14254;50.968;5.366;2022-10-16T12:12:39;23.40;99.90
26623;DHT22;14254;50.968;5.366;2022-10-16T12:15:25;23.20;99.90
26623;DHT22;14254;50.968;5.366;2022-10-16T12:17:51;22.80;99.90
26623;DHT22;14254;50.968;5.366;2022-10-16T12:27:59;22.20;99.90
26623;DHT22;14254;50.968;5.366;2022-10-16T12:30:25;21.80;99.90
26623;DHT22;14254;50.968;5.366;2022-10-16T12:33:03;21.80;99.90
26623;DHT22;14254;50.968;5.366;2022-10-16T12:35:33;22.20;99.90
26623;DHT22;14254;50.968;5.366;2022-10-16T12:38:27;22.70;99.90
26623;DHT22;14254;50.968;5.366;2022-10-16T12:41:05;23.80;99.90
26623;DHT22;14254;50.968;5.366;2022-10-16T12:46:02;24.50;99.90
26623;DHT22;14254;50.968;5.366;2022-10-16T12:48:28;24.60;99.90
26623;DHT22;14254;50.968;5.366;2022-10-16T12:50:54;24.20;99.90
26623;DHT22;14254;50.968;5.366;2022-10-16T12:53:26;23.80;99.90
26623;DHT22;14254;50.968;5.366;2022-10-16T12:56:02;23.30;99.90
26623;DHT22;14254;50.968;5.366;2022-10-16T13:00:59;22.50;99.90
26623;DHT22;14254;50.968;5.366;2022-10-16T13:15:04;21.90;99.90
26623;DHT22;14254;50.968;5.366;2022-10-16T13:20:35;22.20;99.90
26623;DHT22;14254;50.968;5.366;2022-10-16T13:23:45;22.40;99.90
26623;DHT22;14254;50.968;5.366;2022-10-16T13:26:31;22.30;99.90
26623;DHT22;14254;50.968;5.366;2022-10-16T13:29:00;22.30;99.90
26623;DHT22;14254;50.968;5.366;2022-10-16T13:31:26;22.40;99.90
26623;DHT22;14254;50.968;5.366;2022-10-16T13:33:56;22.20;99.90
26623;DHT22;14254;50.968;5.366;2022-10-16T13:36:35;21.80;99.90
26623;DHT22;14254;50.968;5.366;2022-10-16T13:39:14;21.60;99.90
26623;DHT22;14254;50.968;5.366;2022-10-16T13:41:40;21.60;99.90
26623;DHT22;14254;50.968;5.366;2022-10-16T13:44:18;21.60;99.90
26623;DHT22;14254;50.968;5.366;2022-10-16T13:46:44;21.60;99.90
26623;DHT22;14254;50.968;5.366;2022-10-16T13:49:19;21.70;99.90
26623;DHT22;14254;50.968;5.366;2022-10-16T13:52:03;21.70;99.90
26623;DHT22;14254;50.968;5.366;2022-10-16T13:54:29;21.70;99.90
26623;DHT22;14254;50.968;5.366;2022-10-16T13:56:55;21.70;99.90
26623;DHT22;14254;50.968;5.366;2022-10-16T13:59:24;21.60;99.90
26623;DHT22;14254;50.968;5.366;2022-10-16T14:01:52;21.80;99.90
26623;DHT22;14254;50.968;5.366;2022-10-16T14:04:19;21.90;99.90
26623;DHT22;14254;50.968;5.366;2022-10-16T14:06:46;21.90;99.90
26623;DHT22;14254;50.968;5.366;2022-10-16T14:09:20;21.90;99.90
26623;DHT22;14254;50.968;5.366;2022-10-16T14:11:50;22.00;99.90
26623;DHT22;14254;50.968;5.366;2022-10-16T14:14:18;22.30;99.90
26623;DHT22;14254;50.968;5.366;2022-10-16T14:16:44;22.50;99.90
26623;DHT22;14254;50.968;5.366;2022-10-16T14:19:22;22.60;99.90
26623;DHT22;14254;50.968;5.366;2022-10-16T14:21:49;22.50;99.90
26623;DHT22;14254;50.968;5.366;2022-10-16T14:24:32;22.40;99.90
26623;DHT22;14254;50.968;5.366;2022-10-16T14:26:59;22.40;99.90
26623;DHT22;14254;50.968;5.366;2022-10-16T14:29:27;22.50;99.90
26623;DHT22;14254;50.968;5.366;2022-10-16T14:31:59;22.60;99.90
26623;DHT22;14254;50.968;5.366;2022-10-16T14:34:36;22.70;99.90
26623;DHT22;14254;50.968;5.366;2022-10-16T14:37:26;22.50;99.90
26623;DHT22;14254;50.968;5.366;2022-10-16T14:39:53;22.40;99.90
26623;DHT22;14254;50.968;5.366;2022-10-16T14:42:20;22.30;99.90
26623;DHT22;14254;50.968;5.366;2022-10-16T14:44:49;22.10;99.90
26623;DHT22;14254;50.968;5.366;2022-10-16T14:47:19;22.10;99.90
26623;DHT22;14254;50.968;5.366;2022-10-16T14:49:52;21.90;99.90
26623;DHT22;14254;50.968;5.366;2022-10-16T14:52:20;21.90;99.90
26623;DHT22;14254;50.968;5.366;2022-10-16T14:54:50;21.90;99.90
26623;DHT22;14254;50.968;5.366;2022-10-16T14:57:23;21.80;99.90
26623;DHT22;14254;50.968;5.366;2022-10-16T14:59:50;21.80;99.90
26623;DHT22;14254;50.968;5.366;2022-10-16T15:02:32;21.80;99.90
26623;DHT22;14254;50.968;5.366;2022-10-16T15:05:18;21.80;99.90
26623;DHT22;14254;50.968;5.366;2022-10-16T15:07:44;21.80;99.90
26623;DHT22;14254;50.968;5.366;2022-10-16T15:10:09;21.80;99.90
26623;DHT22;14254;50.968;5.366;2022-10-16T15:12:35;21.90;99.90
26623;DHT22;14254;50.968;5.366;2022-10-16T15:15:01;21.70;99.90
26623;DHT22;14254;50.968;5.366;2022-10-16T15:17:27;21.60;99.90
26623;DHT22;14254;50.968;5.366;2022-10-16T15:19:53;21.60;99.90
26623;DHT22;14254;50.968;5.366;2022-10-16T15:22:18;21.70;99.90
26623;DHT22;14254;50.968;5.366;2022-10-16T15:24:44;21.70;99.90
26623;DHT22;14254;50.968;5.366;2022-10-16T15:27:09;21.60;99.90
26623;DHT22;14254;50.968;5.366;2022-10-16T15:29:35;21.60;99.90
26623;DHT22;14254;50.968;5.366;2022-10-16T15:32:01;21.30;99.90
26623;DHT22;14254;50.968;5.366;2022-10-16T15:34:26;21.10;99.90
26623;DHT22;14254;50.968;5.366;2022-10-16T15:36:52;21.10;99.90
26623;DHT22;14254;50.968;5.366;2022-10-16T15:39:20;21.00;99.90
26623;DHT22;14254;50.968;5.366;2022-10-16T15:41:47;20.90;99.90
26623;DHT22;14254;50.968;5.366;2022-10-16T15:44:16;20.80;99.90
26623;DHT22;14254;50.968;5.366;2022-10-16T15:46:42;20.70;99.90
26623;DHT22;14254;50.968;5.366;2022-10-16T15:49:08;20.60;99.90
26623;DHT22;14254;50.968;5.366;2022-10-16T15:51:38;20.50;99.90
26623;DHT22;14254;50.968;5.366;2022-10-16T15:54:04;20.40;99.90
26623;DHT22;14254;50.968;5.366;2022-10-16T15:56:30;20.40;99.90
26623;DHT22;14254;50.968;5.366;2022-10-16T15:58:58;20.30;99.90
26623;DHT22;14254;50.968;5.366;2022-10-16T16:01:24;20.10;99.90
26623;DHT22;14254;50.968;5.366;2022-10-16T16:03:53;20.00;99.90
26623;DHT22;14254;50.968;5.366;2022-10-16T16:06:19;19.80;99.90
26623;DHT22;14254;50.968;5.366;2022-10-16T16:08:44;19.80;99.90
26623;DHT22;14254;50.968;5.366;2022-10-16T16:11:12;19.60;99.90
26623;DHT22;14254;50.968;5.366;2022-10-16T16:13:39;19.40;99.90
26623;DHT22;14254;50.968;5.366;2022-10-16T16:16:13;19.40;99.90
26623;DHT22;14254;50.968;5.366;2022-10-16T16:18:39;19.30;99.90
26623;DHT22;14254;50.968;5.366;2022-10-16T16:21:05;19.20;99.90
26623;DHT22;14254;50.968;5.366;2022-10-16T16:23:31;19.20;99.90
26623;DHT22;14254;50.968;5.366;2022-10-16T16:28:55;19.10;99.90
26623;DHT22;14254;50.968;5.366;2022-10-16T16:31:29;19.00;99.90
26623;DHT22;14254;50.968;5.366;2022-10-16T16:33:55;18.90;99.90
26623;DHT22;14254;50.968;5.366;2022-10-16T16:36:23;18.80;99.90
26623;DHT22;14254;50.968;5.366;2022-10-16T16:38:48;18.60;99.90
26623;DHT22;14254;50.968;5.366;2022-10-16T16:41:17;18.60;99.90
26623;DHT22;14254;50.968;5.366;2022-10-16T16:43:43;18.60;99.90
26623;DHT22;14254;50.968;5.366;2022-10-16T16:46:09;18.60;99.90
26623;DHT22;14254;50.968;5.366;2022-10-16T16:48:35;18.60;99.90
26623;DHT22;14254;50.968;5.366;2022-10-16T16:51:12;18.40;99.90
26623;DHT22;14254;50.968;5.366;2022-10-16T16:53:46;18.20;99.90
26623;DHT22;14254;50.968;5.366;2022-10-16T16:56:13;18.10;99.90
26623;DHT22;14254;50.968;5.366;2022-10-16T16:58:39;18.10;99.90
26623;DHT22;14254;50.968;5.366;2022-10-16T17:01:05;18.10;99.90
26623;DHT22;14254;50.968;5.366;2022-10-16T17:03:33;18.20;99.90
26623;DHT22;14254;50.968;5.366;2022-10-16T17:08:26;18.00;99.90
26623;DHT22;14254;50.968;5.366;2022-10-16T17:10:51;17.90;99.90
26623;DHT22;14254;50.968;5.366;2022-10-16T17:13:21;17.90;99.90
26623;DHT22;14254;50.968;5.366;2022-10-16T17:15:49;17.60;99.90
26623;DHT22;14254;50.968;5.366;2022-10-16T17:18:15;17.50;99.90
26623;DHT22;14254;50.968;5.366;2022-10-16T17:20:41;17.20;99.90
26623;DHT22;14254;50.968;5.366;2022-10-16T17:23:07;17.30;99.90
26623;DHT22;14254;50.968;5.366;2022-10-16T17:25:36;17.40;99.90
26623;DHT22;14254;50.968;5.366;2022-10-16T17:28:03;17.50;99.90
26623;DHT22;14254;50.968;5.366;2022-10-16T17:30:29;17.50;99.90
26623;DHT22;14254;50.968;5.366;2022-10-16T17:32:55;17.60;99.90
26623;DHT22;14254;50.968;5.366;2022-10-16T17:35:21;17.60;99.90
26623;DHT22;14254;50.968;5.366;2022-10-16T17:37:46;17.60;99.90
26623;DHT22;14254;50.968;5.366;2022-10-16T17:40:12;17.70;99.90
26623;DHT22;14254;50.968;5.366;2022-10-16T17:42:38;17.70;99.90
26623;DHT22;14254;50.968;5.366;2022-10-16T17:45:04;17.90;99.90
26623;DHT22;14254;50.968;5.366;2022-10-16T17:47:29;18.00;99.90